sensor_id;sensor_type;location;lat;lon;timestamp;P1;durP1;ratioP1;P2;durP2;ratioP2
31282;SDS011;17915;52.540;13.604;2023-10-19T00:00:32;30.92;;;20.50;;
31282;SDS011;17915;52.540;13.604;2023-10-19T00:03:02;23.85;;;17.58;;
31282;SDS011;17915;52.540;13.604;2023-10-19T00:05:31;25.92;;;17.85;;
31282;SDS011;17915;52.540;13.604;2023-10-19T00:07:57;29.25;;;18.60;;
31282;SDS011;17915;52.540;13.604;2023-10-19T00:10:30;35.53;;;18.73;;
31282;SDS011;17915;52.540;13.604;2023-10-19T00:13:00;29.20;;;18.63;;
31282;SDS011;17915;52.540;13.604;2023-10-19T00:15:36;29.45;;;19.25;;
31282;SDS011;17915;52.540;13.604;2023-10-19T00:18:05;29.05;;;18.77;;
31282;SDS011;17915;52.540;13.604;2023-10-19T00:20:46;10.40;;;8.77;;
31282;SDS011;17915;52.540;13.604;2023-10-19T00:23:23;30.45;;;19.40;;
31282;SDS011;17915;52.540;13.604;2023-10-19T00:25:56;29.08;;;19.25;;
31282;SDS011;17915;52.540;13.604;2023-10-19T00:28:22;27.33;;;19.98;;
31282;SDS011;17915;52.540;13.604;2023-10-19T00:30:48;31.93;;;20.53;;
31282;SDS011;17915;52.540;13.604;2023-10-19T00:33:16;31.40;;;19.42;;
31282;SDS011;17915;52.540;13.604;2023-10-19T00:35:46;35.08;;;20.85;;
31282;SDS011;17915;52.540;13.604;2023-10-19T00:38:30;29.60;;;19.20;;
31282;SDS011;17915;52.540;13.604;2023-10-19T00:40:58;31.48;;;20.92;;
31282;SDS011;17915;52.540;13.604;2023-10-19T00:43:29;36.28;;;21.67;;
31282;SDS011;17915;52.540;13.604;2023-10-19T00:46:02;28.63;;;17.38;;
31282;SDS011;17915;52.540;13.604;2023-10-19T00:48:55;32.10;;;20.05;;
31282;SDS011;17915;52.540;13.604;2023-10-19T00:51:45;30.33;;;19.38;;
31282;SDS011;17915;52.540;13.604;2023-10-19T00:54:32;28.15;;;18.55;;
31282;SDS011;17915;52.540;13.604;2023-10-19T00:57:11;33.67;;;19.42;;
31282;SDS011;17915;52.540;13.604;2023-10-19T00:59:37;30.43;;;18.80;;
31282;SDS011;17915;52.540;13.604;2023-10-19T01:02:19;27.50;;;17.85;;
31282;SDS011;17915;52.540;13.604;2023-10-19T01:04:47;28.35;;;19.20;;
31282;SDS011;17915;52.540;13.604;2023-10-19T01:07:46;30.52;;;19.23;;
31282;SDS011;17915;52.540;13.604;2023-10-19T01:10:11;29.90;;;18.77;;
31282;SDS011;17915;52.540;13.604;2023-10-19T01:12:37;26.53;;;19.03;;
31282;SDS011;17915;52.540;13.604;2023-10-19T01:17:38;29.67;;;20.02;;
31282;SDS011;17915;52.540;13.604;2023-10-19T01:20:26;30.08;;;19.02;;
31282;SDS011;17915;52.540;13.604;2023-10-19T01:22:58;36.60;;;18.80;;
31282;SDS011;17915;52.540;13.604;2023-10-19T01:25:42;31.70;;;21.15;;
31282;SDS011;17915;52.540;13.604;2023-10-19T01:28:26;37.83;;;21.52;;
31282;SDS011;17915;52.540;13.604;2023-10-19T01:31:14;37.83;;;19.92;;
31282;SDS011;17915;52.540;13.604;2023-10-19T01:34:01;35.22;;;21.15;;
31282;SDS011;17915;52.540;13.604;2023-10-19T01:36:29;36.53;;;20.90;;
31282;SDS011;17915;52.540;13.604;2023-10-19T01:39:01;31.90;;;19.17;;
31282;SDS011;17915;52.540;13.604;2023-10-19T01:41:27;32.90;;;21.17;;
31282;SDS011;17915;52.540;13.604;2023-10-19T01:43:53;31.40;;;19.17;;
31282;SDS011;17915;52.540;13.604;2023-10-19T01:46:19;38.05;;;19.95;;
31282;SDS011;17915;52.540;13.604;2023-10-19T01:48:57;31.20;;;20.00;;
31282;SDS011;17915;52.540;13.604;2023-10-19T01:51:23;35.83;;;21.87;;
31282;SDS011;17915;52.540;13.604;2023-10-19T01:53:53;33.35;;;21.58;;
31282;SDS011;17915;52.540;13.604;2023-10-19T01:56:20;36.60;;;19.45;;
31282;SDS011;17915;52.540;13.604;2023-10-19T01:58:46;33.85;;;20.88;;
31282;SDS011;17915;52.540;13.604;2023-10-19T02:01:12;43.10;;;21.63;;
31282;SDS011;17915;52.540;13.604;2023-10-19T02:03:39;29.83;;;21.30;;
31282;SDS011;17915;52.540;13.604;2023-10-19T02:06:12;37.08;;;21.08;;
31282;SDS011;17915;52.540;13.604;2023-10-19T02:08:51;34.55;;;20.70;;
31282;SDS011;17915;52.540;13.604;2023-10-19T02:11:21;32.90;;;20.73;;
31282;SDS011;17915;52.540;13.604;2023-10-19T02:16:14;34.80;;;18.57;;
31282;SDS011;17915;52.540;13.604;2023-10-19T02:21:09;33.95;;;21.30;;
31282;SDS011;17915;52.540;13.604;2023-10-19T02:23:37;35.03;;;22.23;;
31282;SDS011;17915;52.540;13.604;2023-10-19T02:26:04;33.42;;;21.50;;
31282;SDS011;17915;52.540;13.604;2023-10-19T02:28:30;37.28;;;22.70;;
31282;SDS011;17915;52.540;13.604;2023-10-19T02:31:05;41.47;;;22.15;;
31282;SDS011;17915;52.540;13.604;2023-10-19T02:33:57;34.63;;;21.35;;
31282;SDS011;17915;52.540;13.604;2023-10-19T02:36:25;37.10;;;21.63;;
31282;SDS011;17915;52.540;13.604;2023-10-19T02:38:55;33.72;;;20.98;;
31282;SDS011;17915;52.540;13.604;2023-10-19T02:41:24;38.67;;;21.30;;
31282;SDS011;17915;52.540;13.604;2023-10-19T02:43:51;34.03;;;21.75;;
31282;SDS011;17915;52.540;13.604;2023-10-19T02:46:27;34.90;;;21.17;;
31282;SDS011;17915;52.540;13.604;2023-10-19T02:48:53;31.25;;;20.55;;
31282;SDS011;17915;52.540;13.604;2023-10-19T02:51:19;33.87;;;20.63;;
31282;SDS011;17915;52.540;13.604;2023-10-19T02:53:44;32.53;;;20.43;;
31282;SDS011;17915;52.540;13.604;2023-10-19T02:56:14;34.23;;;20.33;;
31282;SDS011;17915;52.540;13.604;2023-10-19T02:58:44;36.92;;;20.52;;
31282;SDS011;17915;52.540;13.604;2023-10-19T03:01:15;37.28;;;20.00;;
31282;SDS011;17915;52.540;13.604;2023-10-19T03:03:46;32.80;;;21.35;;
31282;SDS011;17915;52.540;13.604;2023-10-19T03:06:12;41.60;;;21.75;;
31282;SDS011;17915;52.540;13.604;2023-10-19T03:08:38;34.40;;;23.57;;
31282;SDS011;17915;52.540;13.604;2023-10-19T03:11:03;31.40;;;22.03;;
31282;SDS011;17915;52.540;13.604;2023-10-19T03:13:29;43.97;;;23.63;;
31282;SDS011;17915;52.540;13.604;2023-10-19T03:15:54;34.27;;;22.07;;
31282;SDS011;17915;52.540;13.604;2023-10-19T03:18:20;36.47;;;22.77;;
31282;SDS011;17915;52.540;13.604;2023-10-19T03:20:45;34.67;;;22.30;;
31282;SDS011;17915;52.540;13.604;2023-10-19T03:23:10;44.20;;;23.97;;
31282;SDS011;17915;52.540;13.604;2023-10-19T03:25:36;44.30;;;24.80;;
31282;SDS011;17915;52.540;13.604;2023-10-19T03:28:20;36.00;;;23.58;;
31282;SDS011;17915;52.540;13.604;2023-10-19T03:30:47;36.00;;;23.55;;
31282;SDS011;17915;52.540;13.604;2023-10-19T03:33:12;33.70;;;23.67;;
31282;SDS011;17915;52.540;13.604;2023-10-19T03:35:38;36.47;;;23.67;;
31282;SDS011;17915;52.540;13.604;2023-10-19T03:38:07;38.38;;;23.38;;
31282;SDS011;17915;52.540;13.604;2023-10-19T03:40:39;33.60;;;21.77;;
31282;SDS011;17915;52.540;13.604;2023-10-19T03:43:05;33.22;;;23.17;;
31282;SDS011;17915;52.540;13.604;2023-10-19T03:48:14;43.60;;;21.52;;
31282;SDS011;17915;52.540;13.604;2023-10-19T03:50:41;34.97;;;22.35;;
31282;SDS011;17915;52.540;13.604;2023-10-19T03:53:07;49.63;;;25.65;;
31282;SDS011;17915;52.540;13.604;2023-10-19T03:55:37;45.78;;;24.23;;
31282;SDS011;17915;52.540;13.604;2023-10-19T03:58:03;37.72;;;24.15;;
31282;SDS011;17915;52.540;13.604;2023-10-19T04:00:29;35.53;;;22.95;;
31282;SDS011;17915;52.540;13.604;2023-10-19T04:02:58;35.10;;;23.58;;
31282;SDS011;17915;52.540;13.604;2023-10-19T04:05:23;38.80;;;23.90;;
31282;SDS011;17915;52.540;13.604;2023-10-19T04:07:50;44.05;;;25.35;;
31282;SDS011;17915;52.540;13.604;2023-10-19T04:10:19;41.72;;;24.20;;
31282;SDS011;17915;52.540;13.604;2023-10-19T04:13:00;36.47;;;22.58;;
31282;SDS011;17915;52.540;13.604;2023-10-19T04:15:28;43.00;;;24.10;;
31282;SDS011;17915;52.540;13.604;2023-10-19T04:17:59;32.22;;;22.02;;
31282;SDS011;17915;52.540;13.604;2023-10-19T04:20:25;42.45;;;26.58;;
31282;SDS011;17915;52.540;13.604;2023-10-19T04:22:50;37.37;;;23.70;;
31282;SDS011;17915;52.540;13.604;2023-10-19T04:25:17;41.13;;;22.77;;
31282;SDS011;17915;52.540;13.604;2023-10-19T04:27:50;42.95;;;25.77;;
31282;SDS011;17915;52.540;13.604;2023-10-19T04:30:16;48.77;;;28.80;;
31282;SDS011;17915;52.540;13.604;2023-10-19T04:35:08;28.83;;;17.48;;
31282;SDS011;17915;52.540;13.604;2023-10-19T04:37:34;44.23;;;25.00;;
31282;SDS011;17915;52.540;13.604;2023-10-19T04:40:00;38.05;;;23.17;;
31282;SDS011;17915;52.540;13.604;2023-10-19T04:42:26;42.63;;;23.73;;
31282;SDS011;17915;52.540;13.604;2023-10-19T04:44:52;42.88;;;23.95;;
31282;SDS011;17915;52.540;13.604;2023-10-19T04:49:44;40.92;;;23.88;;
31282;SDS011;17915;52.540;13.604;2023-10-19T04:52:09;43.23;;;23.83;;
31282;SDS011;17915;52.540;13.604;2023-10-19T04:54:35;41.33;;;24.70;;
31282;SDS011;17915;52.540;13.604;2023-10-19T04:57:02;48.10;;;25.35;;
31282;SDS011;17915;52.540;13.604;2023-10-19T04:59:28;42.87;;;26.83;;
31282;SDS011;17915;52.540;13.604;2023-10-19T05:01:58;43.97;;;25.50;;
31282;SDS011;17915;52.540;13.604;2023-10-19T05:04:23;41.27;;;27.03;;
31282;SDS011;17915;52.540;13.604;2023-10-19T05:06:49;46.20;;;25.77;;
31282;SDS011;17915;52.540;13.604;2023-10-19T05:09:14;43.30;;;25.83;;
31282;SDS011;17915;52.540;13.604;2023-10-19T05:11:40;42.27;;;24.00;;
31282;SDS011;17915;52.540;13.604;2023-10-19T05:14:05;43.10;;;24.77;;
31282;SDS011;17915;52.540;13.604;2023-10-19T05:16:31;40.67;;;24.93;;
31282;SDS011;17915;52.540;13.604;2023-10-19T05:18:56;41.27;;;25.23;;
31282;SDS011;17915;52.540;13.604;2023-10-19T05:21:22;37.13;;;25.07;;
31282;SDS011;17915;52.540;13.604;2023-10-19T05:23:47;38.27;;;23.10;;
31282;SDS011;17915;52.540;13.604;2023-10-19T05:26:13;40.50;;;24.13;;
31282;SDS011;17915;52.540;13.604;2023-10-19T05:28:40;39.15;;;24.80;;
31282;SDS011;17915;52.540;13.604;2023-10-19T05:31:07;43.40;;;26.35;;
31282;SDS011;17915;52.540;13.604;2023-10-19T05:33:33;41.72;;;25.02;;
31282;SDS011;17915;52.540;13.604;2023-10-19T05:35:59;49.93;;;25.57;;
31282;SDS011;17915;52.540;13.604;2023-10-19T05:38:26;46.35;;;26.27;;
31282;SDS011;17915;52.540;13.604;2023-10-19T05:40:52;43.70;;;25.77;;
31282;SDS011;17915;52.540;13.604;2023-10-19T05:43:17;43.70;;;25.57;;
31282;SDS011;17915;52.540;13.604;2023-10-19T05:45:43;37.93;;;23.50;;
31282;SDS011;17915;52.540;13.604;2023-10-19T05:48:08;44.73;;;27.27;;
31282;SDS011;17915;52.540;13.604;2023-10-19T05:50:36;44.50;;;25.65;;
31282;SDS011;17915;52.540;13.604;2023-10-19T05:53:03;41.30;;;25.53;;
31282;SDS011;17915;52.540;13.604;2023-10-19T05:55:28;44.60;;;26.85;;
31282;SDS011;17915;52.540;13.604;2023-10-19T05:57:54;42.77;;;25.67;;
31282;SDS011;17915;52.540;13.604;2023-10-19T06:00:20;45.92;;;24.65;;
31282;SDS011;17915;52.540;13.604;2023-10-19T06:02:46;49.53;;;28.23;;
31282;SDS011;17915;52.540;13.604;2023-10-19T06:05:14;45.22;;;25.42;;
31282;SDS011;17915;52.540;13.604;2023-10-19T06:07:44;39.97;;;24.95;;
31282;SDS011;17915;52.540;13.604;2023-10-19T06:10:11;42.05;;;26.27;;
31282;SDS011;17915;52.540;13.604;2023-10-19T06:12:41;37.33;;;23.75;;
31282;SDS011;17915;52.540;13.604;2023-10-19T06:15:07;45.40;;;25.98;;
31282;SDS011;17915;52.540;13.604;2023-10-19T06:17:33;42.35;;;24.35;;
31282;SDS011;17915;52.540;13.604;2023-10-19T06:19:58;40.10;;;24.93;;
31282;SDS011;17915;52.540;13.604;2023-10-19T06:22:24;37.40;;;25.33;;
31282;SDS011;17915;52.540;13.604;2023-10-19T06:24:49;40.93;;;25.00;;
31282;SDS011;17915;52.540;13.604;2023-10-19T06:27:14;42.37;;;25.83;;
31282;SDS011;17915;52.540;13.604;2023-10-19T06:29:40;52.17;;;26.63;;
31282;SDS011;17915;52.540;13.604;2023-10-19T06:32:05;40.77;;;25.27;;
31282;SDS011;17915;52.540;13.604;2023-10-19T06:34:30;42.77;;;26.87;;
31282;SDS011;17915;52.540;13.604;2023-10-19T06:36:57;46.97;;;26.70;;
31282;SDS011;17915;52.540;13.604;2023-10-19T06:39:24;47.05;;;28.35;;
31282;SDS011;17915;52.540;13.604;2023-10-19T06:41:49;46.30;;;27.13;;
31282;SDS011;17915;52.540;13.604;2023-10-19T06:44:15;42.30;;;26.53;;
31282;SDS011;17915;52.540;13.604;2023-10-19T06:46:41;44.85;;;27.40;;
31282;SDS011;17915;52.540;13.604;2023-10-19T06:49:08;48.38;;;27.08;;
31282;SDS011;17915;52.540;13.604;2023-10-19T06:51:34;46.73;;;27.93;;
31282;SDS011;17915;52.540;13.604;2023-10-19T06:53:59;48.53;;;27.03;;
31282;SDS011;17915;52.540;13.604;2023-10-19T06:56:25;36.33;;;23.57;;
31282;SDS011;17915;52.540;13.604;2023-10-19T06:58:50;16.03;;;10.63;;
31282;SDS011;17915;52.540;13.604;2023-10-19T07:01:15;44.20;;;25.70;;
31282;SDS011;17915;52.540;13.604;2023-10-19T07:03:43;40.30;;;24.58;;
31282;SDS011;17915;52.540;13.604;2023-10-19T07:06:08;40.88;;;23.38;;
31282;SDS011;17915;52.540;13.604;2023-10-19T07:08:38;46.40;;;26.33;;
31282;SDS011;17915;52.540;13.604;2023-10-19T07:11:06;41.15;;;25.48;;
31282;SDS011;17915;52.540;13.604;2023-10-19T07:13:32;43.63;;;26.10;;
31282;SDS011;17915;52.540;13.604;2023-10-19T07:15:58;49.88;;;26.30;;
31282;SDS011;17915;52.540;13.604;2023-10-19T07:18:24;45.57;;;27.67;;
31282;SDS011;17915;52.540;13.604;2023-10-19T07:20:49;39.27;;;25.83;;
31282;SDS011;17915;52.540;13.604;2023-10-19T07:23:15;41.57;;;25.77;;
31282;SDS011;17915;52.540;13.604;2023-10-19T07:25:44;40.72;;;24.77;;
31282;SDS011;17915;52.540;13.604;2023-10-19T07:28:14;36.67;;;24.20;;
31282;SDS011;17915;52.540;13.604;2023-10-19T07:30:41;50.38;;;29.27;;
31282;SDS011;17915;52.540;13.604;2023-10-19T07:33:07;42.15;;;25.75;;
31282;SDS011;17915;52.540;13.604;2023-10-19T07:35:36;40.97;;;25.50;;
31282;SDS011;17915;52.540;13.604;2023-10-19T07:38:07;41.47;;;24.65;;
31282;SDS011;17915;52.540;13.604;2023-10-19T07:40:33;45.77;;;26.47;;
31282;SDS011;17915;52.540;13.604;2023-10-19T07:43:01;49.22;;;26.15;;
31282;SDS011;17915;52.540;13.604;2023-10-19T07:45:28;36.80;;;24.60;;
31282;SDS011;17915;52.540;13.604;2023-10-19T07:47:56;39.10;;;25.35;;
31282;SDS011;17915;52.540;13.604;2023-10-19T07:50:22;38.35;;;24.45;;
31282;SDS011;17915;52.540;13.604;2023-10-19T07:52:49;39.43;;;25.67;;
31282;SDS011;17915;52.540;13.604;2023-10-19T07:55:16;48.97;;;26.13;;
31282;SDS011;17915;52.540;13.604;2023-10-19T07:57:42;43.47;;;26.45;;
31282;SDS011;17915;52.540;13.604;2023-10-19T08:00:08;39.22;;;25.65;;
31282;SDS011;17915;52.540;13.604;2023-10-19T08:02:35;46.08;;;25.08;;
31282;SDS011;17915;52.540;13.604;2023-10-19T08:05:02;44.38;;;25.02;;
31282;SDS011;17915;52.540;13.604;2023-10-19T08:07:28;41.53;;;25.70;;
31282;SDS011;17915;52.540;13.604;2023-10-19T08:09:54;44.33;;;27.60;;
31282;SDS011;17915;52.540;13.604;2023-10-19T08:12:19;40.58;;;26.17;;
31282;SDS011;17915;52.540;13.604;2023-10-19T08:14:47;43.25;;;25.70;;
31282;SDS011;17915;52.540;13.604;2023-10-19T08:17:13;38.58;;;25.30;;
31282;SDS011;17915;52.540;13.604;2023-10-19T08:19:39;45.30;;;26.83;;
31282;SDS011;17915;52.540;13.604;2023-10-19T08:22:05;41.78;;;27.13;;
31282;SDS011;17915;52.540;13.604;2023-10-19T08:24:30;36.50;;;25.27;;
31282;SDS011;17915;52.540;13.604;2023-10-19T08:27:00;39.22;;;25.45;;
31282;SDS011;17915;52.540;13.604;2023-10-19T08:29:25;42.17;;;26.00;;
31282;SDS011;17915;52.540;13.604;2023-10-19T08:31:51;41.57;;;26.53;;
31282;SDS011;17915;52.540;13.604;2023-10-19T08:34:17;40.33;;;25.27;;
31282;SDS011;17915;52.540;13.604;2023-10-19T08:36:44;38.13;;;24.85;;
31282;SDS011;17915;52.540;13.604;2023-10-19T08:39:09;40.67;;;27.13;;
31282;SDS011;17915;52.540;13.604;2023-10-19T08:41:38;41.60;;;26.38;;
31282;SDS011;17915;52.540;13.604;2023-10-19T08:44:05;48.00;;;26.65;;
31282;SDS011;17915;52.540;13.604;2023-10-19T08:46:40;45.03;;;26.60;;
31282;SDS011;17915;52.540;13.604;2023-10-19T08:49:11;44.38;;;27.58;;
31282;SDS011;17915;52.540;13.604;2023-10-19T08:51:37;42.10;;;27.33;;
31282;SDS011;17915;52.540;13.604;2023-10-19T08:54:04;44.22;;;25.13;;
31282;SDS011;17915;52.540;13.604;2023-10-19T08:58:55;43.55;;;24.50;;
31282;SDS011;17915;52.540;13.604;2023-10-19T09:01:21;39.57;;;24.20;;
31282;SDS011;17915;52.540;13.604;2023-10-19T09:03:49;40.47;;;24.48;;
31282;SDS011;17915;52.540;13.604;2023-10-19T09:06:15;40.45;;;26.40;;
31282;SDS011;17915;52.540;13.604;2023-10-19T09:08:40;40.47;;;25.40;;
31282;SDS011;17915;52.540;13.604;2023-10-19T09:11:07;38.07;;;25.20;;
31282;SDS011;17915;52.540;13.604;2023-10-19T09:13:43;39.35;;;25.73;;
31282;SDS011;17915;52.540;13.604;2023-10-19T09:16:12;37.13;;;25.88;;
31282;SDS011;17915;52.540;13.604;2023-10-19T09:18:47;44.38;;;26.80;;
31282;SDS011;17915;52.540;13.604;2023-10-19T09:21:16;42.30;;;27.10;;
31282;SDS011;17915;52.540;13.604;2023-10-19T09:23:50;39.53;;;25.80;;
31282;SDS011;17915;52.540;13.604;2023-10-19T09:26:19;38.35;;;26.65;;
31282;SDS011;17915;52.540;13.604;2023-10-19T09:28:47;37.90;;;25.48;;
31282;SDS011;17915;52.540;13.604;2023-10-19T09:31:13;46.40;;;27.35;;
31282;SDS011;17915;52.540;13.604;2023-10-19T09:33:41;44.13;;;25.27;;
31282;SDS011;17915;52.540;13.604;2023-10-19T09:36:11;33.97;;;25.23;;
31282;SDS011;17915;52.540;13.604;2023-10-19T09:38:43;25.45;;;14.40;;
31282;SDS011;17915;52.540;13.604;2023-10-19T09:41:17;42.67;;;26.40;;
31282;SDS011;17915;52.540;13.604;2023-10-19T09:43:44;40.65;;;25.08;;
31282;SDS011;17915;52.540;13.604;2023-10-19T09:46:11;38.65;;;24.88;;
31282;SDS011;17915;52.540;13.604;2023-10-19T09:48:46;38.63;;;25.55;;
31282;SDS011;17915;52.540;13.604;2023-10-19T09:51:13;46.42;;;24.92;;
31282;SDS011;17915;52.540;13.604;2023-10-19T09:53:41;35.67;;;25.33;;
31282;SDS011;17915;52.540;13.604;2023-10-19T09:56:08;43.03;;;25.75;;
31282;SDS011;17915;52.540;13.604;2023-10-19T09:58:44;41.05;;;26.45;;
31282;SDS011;17915;52.540;13.604;2023-10-19T10:01:11;43.78;;;26.20;;
31282;SDS011;17915;52.540;13.604;2023-10-19T10:03:49;47.75;;;25.10;;
31282;SDS011;17915;52.540;13.604;2023-10-19T10:06:30;39.88;;;25.00;;
31282;SDS011;17915;52.540;13.604;2023-10-19T10:09:19;38.03;;;25.53;;
31282;SDS011;17915;52.540;13.604;2023-10-19T10:11:48;40.58;;;25.50;;
31282;SDS011;17915;52.540;13.604;2023-10-19T10:14:20;46.17;;;26.60;;
31282;SDS011;17915;52.540;13.604;2023-10-19T10:16:51;37.25;;;24.65;;
31282;SDS011;17915;52.540;13.604;2023-10-19T10:19:26;43.63;;;27.90;;
31282;SDS011;17915;52.540;13.604;2023-10-19T10:22:04;34.90;;;25.17;;
31282;SDS011;17915;52.540;13.604;2023-10-19T10:24:39;45.33;;;27.63;;
31282;SDS011;17915;52.540;13.604;2023-10-19T10:27:08;38.65;;;24.27;;
31282;SDS011;17915;52.540;13.604;2023-10-19T10:29:35;41.50;;;25.95;;
31282;SDS011;17915;52.540;13.604;2023-10-19T10:32:00;50.08;;;26.20;;
31282;SDS011;17915;52.540;13.604;2023-10-19T10:37:08;43.83;;;26.25;;
31282;SDS011;17915;52.540;13.604;2023-10-19T10:39:36;46.45;;;27.35;;
31282;SDS011;17915;52.540;13.604;2023-10-19T10:42:03;45.63;;;26.50;;
31282;SDS011;17915;52.540;13.604;2023-10-19T10:47:03;39.47;;;25.50;;
31282;SDS011;17915;52.540;13.604;2023-10-19T10:49:30;43.35;;;27.05;;
31282;SDS011;17915;52.540;13.604;2023-10-19T10:51:55;46.60;;;28.33;;
31282;SDS011;17915;52.540;13.604;2023-10-19T10:54:21;38.80;;;25.93;;
31282;SDS011;17915;52.540;13.604;2023-10-19T10:56:46;48.33;;;25.97;;
31282;SDS011;17915;52.540;13.604;2023-10-19T10:59:15;44.10;;;28.17;;
31282;SDS011;17915;52.540;13.604;2023-10-19T11:01:40;45.33;;;26.90;;
31282;SDS011;17915;52.540;13.604;2023-10-19T11:04:08;49.40;;;27.33;;
31282;SDS011;17915;52.540;13.604;2023-10-19T11:06:51;41.15;;;27.17;;
31282;SDS011;17915;52.540;13.604;2023-10-19T11:09:20;41.10;;;26.55;;
31282;SDS011;17915;52.540;13.604;2023-10-19T11:11:46;43.60;;;25.83;;
31282;SDS011;17915;52.540;13.604;2023-10-19T11:14:14;43.38;;;26.17;;
31282;SDS011;17915;52.540;13.604;2023-10-19T11:16:39;41.53;;;27.17;;
31282;SDS011;17915;52.540;13.604;2023-10-19T11:19:05;47.73;;;29.40;;
31282;SDS011;17915;52.540;13.604;2023-10-19T11:21:31;46.50;;;26.57;;
31282;SDS011;17915;52.540;13.604;2023-10-19T11:23:56;43.30;;;18.83;;
31282;SDS011;17915;52.540;13.604;2023-10-19T11:26:22;44.10;;;29.67;;
31282;SDS011;17915;52.540;13.604;2023-10-19T11:29:01;44.67;;;30.63;;
31282;SDS011;17915;52.540;13.604;2023-10-19T11:31:29;38.30;;;28.77;;
31282;SDS011;17915;52.540;13.604;2023-10-19T11:34:03;43.55;;;25.80;;
31282;SDS011;17915;52.540;13.604;2023-10-19T11:38:54;41.05;;;26.38;;
31282;SDS011;17915;52.540;13.604;2023-10-19T11:41:20;42.87;;;29.23;;
31282;SDS011;17915;52.540;13.604;2023-10-19T11:43:47;53.57;;;32.07;;
31282;SDS011;17915;52.540;13.604;2023-10-19T11:46:13;46.42;;;28.85;;
31282;SDS011;17915;52.540;13.604;2023-10-19T11:48:50;43.78;;;28.05;;
31282;SDS011;17915;52.540;13.604;2023-10-19T11:51:15;45.50;;;27.63;;
31282;SDS011;17915;52.540;13.604;2023-10-19T11:53:41;47.90;;;27.63;;
31282;SDS011;17915;52.540;13.604;2023-10-19T11:56:08;37.60;;;25.58;;
31282;SDS011;17915;52.540;13.604;2023-10-19T11:58:34;47.03;;;27.00;;
31282;SDS011;17915;52.540;13.604;2023-10-19T12:01:01;43.15;;;26.08;;
31282;SDS011;17915;52.540;13.604;2023-10-19T12:03:30;43.33;;;27.08;;
31282;SDS011;17915;52.540;13.604;2023-10-19T12:05:56;48.33;;;29.48;;
31282;SDS011;17915;52.540;13.604;2023-10-19T12:08:21;48.57;;;27.73;;
31282;SDS011;17915;52.540;13.604;2023-10-19T12:10:47;44.22;;;26.38;;
31282;SDS011;17915;52.540;13.604;2023-10-19T13:15:57;56.92;;;33.80;;
31282;SDS011;17915;52.540;13.604;2023-10-19T13:18:23;54.00;;;33.53;;
31282;SDS011;17915;52.540;13.604;2023-10-19T13:20:54;54.42;;;31.88;;
31282;SDS011;17915;52.540;13.604;2023-10-19T13:23:21;55.42;;;32.78;;
31282;SDS011;17915;52.540;13.604;2023-10-19T13:25:47;54.10;;;35.13;;
31282;SDS011;17915;52.540;13.604;2023-10-19T13:28:19;51.80;;;33.05;;
31282;SDS011;17915;52.540;13.604;2023-10-19T13:30:46;52.45;;;33.10;;
31282;SDS011;17915;52.540;13.604;2023-10-19T13:33:12;56.60;;;35.28;;
31282;SDS011;17915;52.540;13.604;2023-10-19T13:35:39;52.67;;;36.35;;
31282;SDS011;17915;52.540;13.604;2023-10-19T13:38:06;53.55;;;35.90;;
31282;SDS011;17915;52.540;13.604;2023-10-19T13:40:33;62.78;;;37.15;;
31282;SDS011;17915;52.540;13.604;2023-10-19T13:42:59;58.13;;;35.85;;
31282;SDS011;17915;52.540;13.604;2023-10-19T13:45:25;53.83;;;33.57;;
31282;SDS011;17915;52.540;13.604;2023-10-19T13:47:51;56.05;;;34.90;;
31282;SDS011;17915;52.540;13.604;2023-10-19T13:50:23;58.28;;;35.25;;
31282;SDS011;17915;52.540;13.604;2023-10-19T13:52:50;60.73;;;34.77;;
31282;SDS011;17915;52.540;13.604;2023-10-19T13:55:16;52.97;;;36.08;;
31282;SDS011;17915;52.540;13.604;2023-10-19T13:57:44;60.47;;;33.92;;
31282;SDS011;17915;52.540;13.604;2023-10-19T14:00:10;50.33;;;29.95;;
31282;SDS011;17915;52.540;13.604;2023-10-19T14:02:44;43.47;;;28.50;;
31282;SDS011;17915;52.540;13.604;2023-10-19T14:05:10;60.00;;;35.75;;
31282;SDS011;17915;52.540;13.604;2023-10-19T14:07:36;49.60;;;34.07;;
31282;SDS011;17915;52.540;13.604;2023-10-19T14:10:04;63.97;;;36.42;;
31282;SDS011;17915;52.540;13.604;2023-10-19T14:12:37;61.25;;;35.67;;
31282;SDS011;17915;52.540;13.604;2023-10-19T14:15:02;53.70;;;35.03;;
31282;SDS011;17915;52.540;13.604;2023-10-19T14:17:28;69.05;;;36.47;;
31282;SDS011;17915;52.540;13.604;2023-10-19T14:19:53;55.23;;;34.20;;
31282;SDS011;17915;52.540;13.604;2023-10-19T14:22:19;57.03;;;36.40;;
31282;SDS011;17915;52.540;13.604;2023-10-19T14:24:44;57.37;;;36.30;;
31282;SDS011;17915;52.540;13.604;2023-10-19T14:27:10;53.27;;;33.90;;
31282;SDS011;17915;52.540;13.604;2023-10-19T14:29:35;70.70;;;37.77;;
31282;SDS011;17915;52.540;13.604;2023-10-19T14:32:00;74.03;;;37.60;;
31282;SDS011;17915;52.540;13.604;2023-10-19T14:34:28;67.50;;;38.80;;
31282;SDS011;17915;52.540;13.604;2023-10-19T14:36:53;62.27;;;36.47;;
31282;SDS011;17915;52.540;13.604;2023-10-19T14:39:19;54.17;;;36.73;;
31282;SDS011;17915;52.540;13.604;2023-10-19T14:41:45;50.40;;;34.83;;
31282;SDS011;17915;52.540;13.604;2023-10-19T14:44:11;58.00;;;35.58;;
31282;SDS011;17915;52.540;13.604;2023-10-19T14:46:36;54.67;;;34.70;;
31282;SDS011;17915;52.540;13.604;2023-10-19T14:49:01;66.10;;;41.77;;
31282;SDS011;17915;52.540;13.604;2023-10-19T14:51:27;56.73;;;36.10;;
31282;SDS011;17915;52.540;13.604;2023-10-19T14:53:52;54.30;;;37.93;;
31282;SDS011;17915;52.540;13.604;2023-10-19T14:56:18;58.70;;;35.33;;
31282;SDS011;17915;52.540;13.604;2023-10-19T14:58:44;54.93;;;36.43;;
31282;SDS011;17915;52.540;13.604;2023-10-19T15:01:09;52.97;;;34.83;;
31282;SDS011;17915;52.540;13.604;2023-10-19T15:03:41;57.25;;;34.22;;
31282;SDS011;17915;52.540;13.604;2023-10-19T15:06:07;58.73;;;36.97;;
31282;SDS011;17915;52.540;13.604;2023-10-19T15:08:32;53.67;;;38.90;;
31282;SDS011;17915;52.540;13.604;2023-10-19T15:10:58;60.20;;;36.33;;
31282;SDS011;17915;52.540;13.604;2023-10-19T15:13:23;63.80;;;39.10;;
31282;SDS011;17915;52.540;13.604;2023-10-19T15:15:49;56.33;;;37.90;;
31282;SDS011;17915;52.540;13.604;2023-10-19T15:18:14;65.63;;;38.83;;
31282;SDS011;17915;52.540;13.604;2023-10-19T15:20:40;64.43;;;39.57;;
31282;SDS011;17915;52.540;13.604;2023-10-19T15:25:32;56.95;;;37.10;;
31282;SDS011;17915;52.540;13.604;2023-10-19T15:27:58;55.03;;;36.23;;
31282;SDS011;17915;52.540;13.604;2023-10-19T15:30:23;60.67;;;35.47;;
31282;SDS011;17915;52.540;13.604;2023-10-19T15:32:49;67.70;;;39.83;;
31282;SDS011;17915;52.540;13.604;2023-10-19T15:37:46;63.53;;;37.42;;
31282;SDS011;17915;52.540;13.604;2023-10-19T15:40:13;63.00;;;38.90;;
31282;SDS011;17915;52.540;13.604;2023-10-19T15:42:39;60.03;;;36.88;;
31282;SDS011;17915;52.540;13.604;2023-10-19T15:45:08;70.97;;;38.80;;
31282;SDS011;17915;52.540;13.604;2023-10-19T15:47:37;58.60;;;36.17;;